Time;durP1;ratioP1;P1;durP2;ratioP2;P2;SDS_P1;SDS_P2;PMS_P1;PMS_P2;Temp;Humidity;BMP_temperature;BMP_pressure;BME280_temperature;BME280_humidity;BME280_pressure;Samples;Min_cycle;Max_cycle;Signal;HPM_P1;HPM_P2
2022/07/27 00:00:56;;;;;;;8.85;2.65;;;;;;;40.95;21.60;100330.00;4901064;29;20494;-80
2022/07/27 00:03:25;;;;;;;6.53;2.25;;;;;;;41.01;21.51;100328.53;4891495;29;20114;-82
2022/07/27 00:05:55;;;;;;;6.47;2.40;;;;;;;41.01;21.64;100320.38;4894452;29;20193;-77
2022/07/27 00:08:24;;;;;;;3.80;2.30;;;;;;;40.92;21.24;100319.50;4888902;29;20060;-80
2022/07/27 00:10:52;;;;;;;5.45;2.42;;;;;;;40.88;21.47;100320.81;4895370;29;20121;-81
2022/07/27 00:13:21;;;;;;;9.05;2.47;;;;;;;40.92;21.14;100322.22;4892080;29;20155;-80
2022/07/27 00:15:50;;;;;;;5.20;2.60;;;;;;;40.95;21.92;100315.59;4893797;29;20056;-79
2022/07/27 00:18:19;;;;;;;5.40;2.30;;;;;;;40.91;21.84;100304.22;4892331;29;20068;-78
2022/07/27 00:20:47;;;;;;;4.07;2.33;;;;;;;41.00;20.57;100314.09;4892861;29;20060;-79
2022/07/27 00:23:18;;;;;;;5.25;2.40;;;;;;;40.95;21.02;100321.03;4888967;29;20555;-78
2022/07/27 00:25:47;;;;;;;5.65;2.35;;;;;;;40.93;20.03;100312.19;4903438;29;20399;-80
2022/07/27 00:28:16;;;;;;;3.45;2.10;;;;;;;40.86;20.80;100312.00;4881374;29;20061;-78
2022/07/27 00:30:44;;;;;;;4.53;2.22;;;;;;;40.82;20.42;100310.63;4888383;29;20749;-77
2022/07/27 00:33:13;;;;;;;4.35;2.33;;;;;;;40.66;20.99;100321.34;4884214;29;20389;-76
2022/07/27 00:35:41;;;;;;;3.72;2.47;;;;;;;40.51;21.32;100310.25;4894616;29;20121;-78
2022/07/27 00:38:10;;;;;;;4.60;2.65;;;;;;;40.29;21.25;100311.63;4892795;29;20550;-74
2022/07/27 00:40:40;;;;;;;5.75;2.22;;;;;;;40.25;21.10;100313.78;4888251;29;20053;-76
2022/07/27 00:43:09;;;;;;;7.10;2.50;;;;;;;40.24;21.16;100308.53;4884582;29;20057;-75
2022/07/27 00:45:38;;;;;;;5.05;2.30;;;;;;;40.25;21.83;100308.38;4890616;29;20170;-74
2022/07/27 00:48:07;;;;;;;4.97;2.47;;;;;;;40.28;21.66;100307.22;4897572;29;20123;-74
2022/07/27 00:50:36;;;;;;;6.18;2.55;;;;;;;40.25;21.08;100300.25;4895013;29;20128;-75
2022/07/27 00:53:05;;;;;;;5.45;2.20;;;;;;;40.20;21.34;100299.84;4892472;29;20063;-75
2022/07/27 00:55:34;;;;;;;3.00;2.60;;;;;;;40.08;21.68;100301.97;4899579;29;20045;-75
2022/07/27 00:58:07;;;;;;;5.25;2.60;;;;;;;39.97;21.32;100300.38;4900244;29;20052;-79
2022/07/27 01:00:37;;;;;;;5.13;2.65;;;;;;;39.88;21.63;100304.00;4891858;29;20041;-77
2022/07/27 01:03:06;;;;;;;4.85;2.30;;;;;;;39.70;22.40;100303.13;4893106;29;20143;-81
2022/07/27 01:05:37;;;;;;;4.85;2.22;;;;;;;39.64;22.01;100304.59;4892133;29;20085;-79
2022/07/27 01:08:07;;;;;;;4.43;2.60;;;;;;;39.59;23.01;100296.09;4892185;29;20166;-79
2022/07/27 01:10:36;;;;;;;3.20;2.25;;;;;;;39.61;23.60;100294.09;4886677;29;20052;-78
2022/07/27 01:13:06;;;;;;;3.33;2.65;;;;;;;39.64;22.61;100292.94;4891010;29;20044;-81
2022/07/27 01:15:35;;;;;;;6.53;2.70;;;;;;;39.66;22.38;100294.47;4896418;29;20048;-81
2022/07/27 01:18:04;;;;;;;4.65;2.72;;;;;;;39.64;22.01;100288.34;4894665;29;20666;-76
2022/07/27 01:20:33;;;;;;;3.85;2.70;;;;;;;39.62;21.83;100292.22;4893037;29;20053;-79
2022/07/27 01:23:03;;;;;;;6.95;2.20;;;;;;;39.47;21.79;100292.78;4899308;29;20139;-76
2022/07/27 01:25:32;;;;;;;4.60;2.15;;;;;;;39.36;22.29;100285.69;4890734;29;20218;-76
2022/07/27 01:28:00;;;;;;;3.55;2.33;;;;;;;39.29;22.83;100287.31;4895983;29;20049;-78
2022/07/27 01:30:30;;;;;;;4.25;2.60;;;;;;;39.28;23.17;100291.00;4895976;29;20057;-84
2022/07/27 01:33:02;;;;;;;4.55;2.50;;;;;;;39.28;22.33;100282.88;4890690;29;20110;-76
2022/07/27 01:35:31;;;;;;;3.80;2.63;;;;;;;39.28;22.45;100292.84;4895309;29;20052;-75
2022/07/27 01:38:00;;;;;;;5.50;2.58;;;;;;;39.27;22.98;100285.75;4896385;29;20514;-74
2022/07/27 01:40:30;;;;;;;3.00;2.42;;;;;;;39.27;22.77;100285.75;4892950;29;20109;-75
2022/07/27 01:42:59;;;;;;;4.68;2.42;;;;;;;39.20;22.57;100281.97;4895385;29;20152;-75
2022/07/27 01:45:27;;;;;;;5.45;2.78;;;;;;;39.22;22.47;100285.34;4887153;29;20048;-75
2022/07/27 01:47:56;;;;;;;3.22;2.25;;;;;;;39.20;22.62;100288.22;4893334;29;20464;-74
2022/07/27 01:50:24;;;;;;;2.85;2.30;;;;;;;39.20;22.80;100284.66;4894482;29;20593;-74
2022/07/27 01:52:53;;;;;;;2.90;2.25;;;;;;;39.16;22.25;100286.81;4889966;29;20060;-75
2022/07/27 01:55:22;;;;;;;6.07;2.45;;;;;;;39.08;22.09;100282.16;4890952;29;20053;-75
2022/07/27 01:57:52;;;;;;;6.43;2.42;;;;;;;38.93;22.55;100289.91;4894080;29;20049;-75
2022/07/27 02:00:20;;;;;;;5.05;2.45;;;;;;;38.90;22.53;100292.91;4886855;29;20557;-74
2022/07/27 02:02:49;;;;;;;4.35;2.40;;;;;;;38.86;22.48;100290.66;4899007;29;20052;-75
2022/07/27 02:05:17;;;;;;;4.25;2.15;;;;;;;38.82;22.33;100291.94;4893190;29;20053;-75
2022/07/27 02:07:46;;;;;;;4.15;2.22;;;;;;;38.76;22.53;100293.41;4891988;29;20108;-75
2022/07/27 02:10:14;;;;;;;5.38;2.40;;;;;;;38.73;22.44;100294.53;4892884;29;20060;-76
2022/07/27 02:12:42;;;;;;;3.97;2.22;;;;;;;38.66;22.91;100293.41;4898333;29;20048;-75
2022/07/27 02:15:14;;;;;;;6.97;2.20;;;;;;;38.63;23.05;100290.19;4900186;29;20045;-75
2022/07/27 02:17:43;;;;;;;3.67;2.20;;;;;;;38.61;23.45;100301.13;4894346;29;20053;-74
2022/07/27 02:20:13;;;;;;;3.20;2.00;;;;;;;38.58;24.00;100300.56;4885710;29;20063;-73
2022/07/27 02:22:42;;;;;;;4.80;2.10;;;;;;;38.52;24.82;100313.66;4882617;29;20052;-74
2022/07/27 02:25:26;;;;;;;2.40;2.08;;;;;;;38.44;25.58;100313.53;4890834;29;20057;-78
2022/07/27 02:27:54;;;;;;;6.65;2.35;;;;;;;38.35;26.10;100311.72;4881263;29;20044;-77
2022/07/27 02:30:27;;;;;;;3.13;2.05;;;;;;;38.22;26.36;100312.00;4890755;29;20044;-77
2022/07/27 02:32:55;;;;;;;3.95;1.90;;;;;;;38.09;27.27;100311.44;4896300;29;20414;-76
2022/07/27 02:35:24;;;;;;;3.53;2.03;;;;;;;37.98;26.84;100319.66;4894006;29;20052;-74
2022/07/27 02:37:53;;;;;;;4.30;2.22;;;;;;;37.87;28.04;100324.22;4894300;29;20108;-75
2022/07/27 02:40:21;;;;;;;3.45;1.92;;;;;;;37.77;28.34;100322.50;4892739;29;20063;-77
2022/07/27 02:42:50;;;;;;;4.85;2.13;;;;;;;37.65;28.43;100328.03;4893658;29;20120;-75
2022/07/27 02:45:18;;;;;;;5.22;2.13;;;;;;;37.57;29.38;100327.91;4890414;29;20487;-74
2022/07/27 02:47:48;;;;;;;6.53;2.20;;;;;;;37.43;30.09;100330.94;4900495;29;20428;-75
2022/07/27 02:50:17;;;;;;;12.63;2.70;;;;;;;37.19;29.66;100332.19;4902848;29;20115;-75
2022/07/27 02:52:46;;;;;;;10.25;2.08;;;;;;;37.08;30.06;100338.53;4891754;29;20495;-76
2022/07/27 02:55:14;;;;;;;10.23;2.28;;;;;;;37.01;30.01;100329.25;4890597;29;20056;-75
2022/07/27 02:57:43;;;;;;;2.65;1.85;;;;;;;36.94;30.55;100328.09;4891602;29;20748;-75
2022/07/27 03:00:14;;;;;;;6.43;2.05;;;;;;;36.88;31.51;100342.09;4887102;29;20551;-76
2022/07/27 03:02:42;;;;;;;;;;;;;;;36.78;31.78;100342.06;4890945;29;20112;-75
2022/07/27 03:05:12;;;;;;;3.92;2.00;;;;;;;36.65;33.50;100344.09;4894605;29;20600;-76
2022/07/27 03:07:41;;;;;;;3.75;2.03;;;;;;;36.49;33.50;100349.94;4893450;29;20524;-77
2022/07/27 03:10:10;;;;;;;5.35;2.42;;;;;;;36.28;34.57;100342.72;4892950;29;20514;-76
2022/07/27 03:12:38;;;;;;;3.35;2.13;;;;;;;36.22;34.86;100358.56;4894202;29;20059;-76
2022/07/27 03:15:07;;;;;;;6.00;2.15;;;;;;;36.07;34.20;100353.44;4888772;29;20056;-76
2022/07/27 03:17:36;;;;;;;10.25;2.45;;;;;;;35.91;35.15;100361.09;4889449;29;20052;-75
2022/07/27 03:20:05;;;;;;;6.35;2.22;;;;;;;35.74;34.76;100364.34;4902417;29;20708;-76
2022/07/27 03:22:35;;;;;;;4.18;2.10;;;;;;;35.48;35.13;100364.59;4894785;29;20064;-75
2022/07/27 03:25:04;;;;;;;5.30;2.25;;;;;;;35.29;35.72;100367.09;4887725;29;20060;-76
2022/07/27 03:30:54;;;;;;;3.72;1.92;;;;;;;34.79;35.05;100379.00;4884286;29;20100;-76
2022/07/27 03:33:23;;;;;;;4.90;2.13;;;;;;;34.68;35.69;100387.03;4882914;29;20105;-76
2022/07/27 03:35:51;;;;;;;4.25;1.88;;;;;;;34.58;35.01;100389.56;4891242;29;20048;-75
2022/07/27 03:38:21;;;;;;;5.05;2.03;;;;;;;34.48;35.60;100393.09;4885394;29;20053;-76
2022/07/27 03:40:50;;;;;;;7.00;2.20;;;;;;;34.39;37.10;100402.72;4894099;29;20060;-76
2022/07/27 03:43:18;;;;;;;9.18;2.30;;;;;;;34.27;38.81;100407.19;4889056;29;20507;-77
2022/07/27 03:45:56;;;;;;;3.60;2.10;;;;;;;34.15;39.47;100397.34;4893746;29;20048;-77
2022/07/27 03:48:26;;;;;;;3.95;1.95;;;;;;;34.00;37.63;100397.50;4887696;29;20052;-77
2022/07/27 03:50:54;;;;;;;4.32;1.95;;;;;;;33.88;37.34;100405.59;4882426;29;20109;-75
2022/07/27 03:53:24;;;;;;;4.35;1.83;;;;;;;33.76;39.29;100402.84;4891845;29;20045;-75
2022/07/27 03:55:53;;;;;;;3.60;2.22;;;;;;;33.63;41.72;100411.91;4889603;29;20554;-76
2022/07/27 03:58:22;;;;;;;4.97;1.73;;;;;;;33.49;38.89;100411.06;4892966;29;20060;-75
2022/07/27 04:00:51;;;;;;;13.23;2.50;;;;;;;33.32;38.10;100408.72;4887846;29;20587;-77
2022/07/27 04:03:20;;;;;;;5.93;2.13;;;;;;;33.22;41.03;100423.78;4891657;29;20506;-76
2022/07/27 04:05:48;;;;;;;3.08;1.98;;;;;;;33.08;40.10;100433.63;4880298;29;20298;-75
2022/07/27 04:08:19;;;;;;;7.10;2.08;;;;;;;32.96;38.30;100431.75;4879016;29;20064;-76
2022/07/27 04:10:49;;;;;;;3.72;2.03;;;;;;;32.83;38.81;100438.94;4890962;29;20041;-78
2022/07/27 04:13:20;;;;;;;5.80;1.92;;;;;;;32.69;38.55;100443.44;4886992;29;20074;-77
2022/07/27 04:15:49;;;;;;;9.35;1.92;;;;;;;32.59;38.36;100442.31;4883594;29;20578;-77
2022/07/27 04:18:31;;;;;;;7.05;1.90;;;;;;;32.47;37.87;100443.97;4891136;29;20060;-76
2022/07/27 04:21:00;;;;;;;;;;;;;;;32.34;38.88;100443.97;4897604;29;20123;-77
2022/07/27 04:23:29;;;;;;;5.65;2.05;;;;;;;32.24;38.83;100456.22;4887341;29;19928;-76
2022/07/27 04:25:59;;;;;;;10.45;2.20;;;;;;;32.13;41.98;100454.25;4884082;29;20514;-77
2022/07/27 04:28:28;;;;;;;6.38;1.90;;;;;;;32.03;40.50;100449.63;4880293;29;20057;-77
2022/07/27 04:30:57;;;;;;;4.38;2.00;;;;;;;31.92;41.54;100459.16;4892336;29;20511;-76
2022/07/27 04:33:25;;;;;;;3.25;1.85;;;;;;;31.82;40.33;100462.50;4880256;29;20456;-75
2022/07/27 04:35:54;;;;;;;4.07;2.17;;;;;;;31.70;42.73;100466.81;4886036;29;20498;-76
2022/07/27 04:38:23;;;;;;;4.80;2.10;;;;;;;31.59;42.72;100477.34;4885659;29;20084;-76
2022/07/27 04:40:51;;;;;;;5.30;2.03;;;;;;;31.47;44.04;100482.53;4885193;29;20048;-74
2022/07/27 04:43:22;;;;;;;5.40;2.28;;;;;;;31.36;43.71;100476.06;4885017;29;20512;-74
2022/07/27 04:45:50;;;;;;;5.15;2.10;;;;;;;31.17;43.10;100476.34;4886267;29;20080;-75
2022/07/27 04:48:19;;;;;;;4.57;2.10;;;;;;;31.05;41.94;100483.31;4888711;29;20044;-74
2022/07/27 04:50:47;;;;;;;6.07;2.00;;;;;;;30.93;42.53;100479.56;4889020;29;20052;-74
2022/07/27 04:53:17;;;;;;;5.95;2.30;;;;;;;30.79;45.08;100491.03;4887383;29;20056;-74
2022/07/27 04:55:46;;;;;;;4.40;1.95;;;;;;;30.60;44.44;100477.88;4893127;29;20131;-75
2022/07/27 04:58:15;;;;;;;6.57;2.42;;;;;;;30.61;42.55;100489.47;4892343;29;20061;-76
2022/07/27 05:00:46;;;;;;;6.65;2.30;;;;;;;30.54;46.65;100493.44;4894030;29;20108;-75
2022/07/27 05:03:14;;;;;;;6.13;2.22;;;;;;;30.44;46.41;100506.44;4895922;29;20155;-75
2022/07/27 05:05:43;;;;;;;3.10;1.75;;;;;;;30.35;43.91;100506.97;4893966;29;20052;-76
2022/07/27 05:08:11;;;;;;;10.68;2.20;;;;;;;30.26;44.46;100500.31;4892340;29;20495;-76
2022/07/27 05:10:39;;;;;;;8.15;2.75;;;;;;;30.18;46.97;100500.75;4892497;29;20060;-77
2022/07/27 05:13:08;;;;;;;3.22;1.80;;;;;;;30.08;45.41;100494.22;4891853;29;20104;-76
2022/07/27 05:15:36;;;;;;;4.55;2.03;;;;;;;29.99;45.00;100502.75;4895919;29;20052;-76
2022/07/27 05:18:07;;;;;;;4.68;2.00;;;;;;;29.88;45.77;100497.13;4895217;29;20075;-76
2022/07/27 05:20:36;;;;;;;9.02;2.20;;;;;;;29.80;47.11;100501.09;4873679;29;20061;-75
2022/07/27 05:23:04;;;;;;;4.10;2.08;;;;;;;29.71;45.68;100498.94;4876531;29;20060;-76
2022/07/27 05:25:33;;;;;;;6.22;1.73;;;;;;;29.62;44.94;100504.72;4877083;29;20144;-76
2022/07/27 05:28:01;;;;;;;4.03;1.90;;;;;;;29.53;44.76;100505.22;4876221;29;20057;-76
2022/07/27 05:30:30;;;;;;;5.35;1.83;;;;;;;29.47;44.36;100511.72;4876365;29;20057;-76
2022/07/27 05:32:59;;;;;;;4.97;1.83;;;;;;;29.39;44.62;100519.25;4873800;29;20080;-76
2022/07/27 05:35:29;;;;;;;6.18;2.20;;;;;;;29.30;45.54;100536.63;4874447;29;20420;-76
2022/07/27 05:37:57;;;;;;;2.70;1.63;;;;;;;29.10;44.91;100518.97;4872062;29;20467;-77
2022/07/27 05:40:26;;;;;;;7.32;1.98;;;;;;;28.93;44.62;100532.25;4866635;29;20461;-76
2022/07/27 05:42:55;;;;;;;9.18;2.40;;;;;;;28.81;48.53;100545.25;4875835;29;20049;-77
2022/07/27 05:45:23;;;;;;;5.68;1.88;;;;;;;28.70;47.09;100549.38;4869905;29;20054;-76
2022/07/27 05:47:53;;;;;;;6.35;2.00;;;;;;;28.58;44.96;100546.38;4875661;29;20075;-75
2022/07/27 05:50:22;;;;;;;6.18;1.83;;;;;;;28.48;45.30;100546.94;4877146;29;20045;-76
2022/07/27 05:52:52;;;;;;;4.20;1.90;;;;;;;28.38;45.46;100557.09;4873249;29;20045;-76
2022/07/27 05:55:21;;;;;;;4.15;1.60;;;;;;;28.30;45.74;100560.13;4872467;29;20064;-76
2022/07/27 05:57:49;;;;;;;2.90;1.40;;;;;;;28.23;45.28;100563.16;4871146;29;20049;-76
2022/07/27 06:00:18;;;;;;;8.40;2.25;;;;;;;28.15;45.56;100569.72;4872810;29;20060;-75
2022/07/27 06:02:47;;;;;;;3.45;1.85;;;;;;;28.06;45.66;100579.91;4874123;29;20056;-76
2022/07/27 06:05:15;;;;;;;5.22;1.80;;;;;;;27.98;44.79;100588.25;4879408;29;20104;-75
2022/07/27 06:07:58;;;;;;;3.33;1.60;;;;;;;27.81;46.08;100588.97;4875303;29;20650;-75
2022/07/27 06:10:29;;;;;;;3.65;1.50;;;;;;;27.64;47.13;100592.38;4868950;29;20081;-76
2022/07/27 06:12:57;;;;;;;3.73;1.60;;;;;;;27.52;45.23;100584.94;4867666;29;20060;-75
2022/07/27 06:15:26;;;;;;;2.92;1.83;;;;;;;27.46;45.79;100595.84;4866828;29;20053;-76
2022/07/27 06:17:55;;;;;;;4.55;1.60;;;;;;;27.39;45.49;100587.25;4873944;29;20052;-76
2022/07/27 06:20:24;;;;;;;5.10;1.58;;;;;;;27.34;44.73;100589.25;4892876;29;20115;-76
2022/07/27 06:22:54;;;;;;;3.13;1.65;;;;;;;27.25;44.87;100598.47;4890888;29;20057;-76
2022/07/27 06:25:24;;;;;;;3.35;1.88;;;;;;;27.12;45.41;100598.13;4902419;29;20048;-76
2022/07/27 06:27:54;;;;;;;3.55;1.33;;;;;;;27.02;45.35;100599.41;4887048;29;20170;-75
2022/07/27 06:30:23;;;;;;;3.22;1.45;;;;;;;26.93;45.31;100600.66;4894243;29;20048;-75
2022/07/27 06:32:51;;;;;;;5.20;1.70;;;;;;;26.84;45.20;100598.38;4890989;29;20052;-76
2022/07/27 06:35:22;;;;;;;3.85;1.70;;;;;;;26.79;44.89;100603.00;4884118;29;20073;-75
2022/07/27 06:37:51;;;;;;;1.73;1.45;;;;;;;26.75;44.97;100606.69;4893538;29;20059;-75
2022/07/27 06:40:20;;;;;;;2.25;1.40;;;;;;;26.70;45.50;100606.03;4900151;29;20055;-76
2022/07/27 06:42:49;;;;;;;4.38;1.88;;;;;;;26.65;46.02;100610.66;4904631;29;20506;-76
2022/07/27 06:45:20;;;;;;;2.05;1.20;;;;;;;26.59;46.01;100617.06;4895898;29;20045;-76
2022/07/27 06:47:50;;;;;;;2.97;1.35;;;;;;;26.50;46.44;100620.94;4901376;29;20537;-76
2022/07/27 06:50:19;;;;;;;2.70;1.60;;;;;;;26.44;46.41;100629.13;4890952;29;20059;-77
2022/07/27 06:52:47;;;;;;;1.85;1.33;;;;;;;26.37;46.09;100624.13;4889968;29;20112;-75
2022/07/27 06:55:16;;;;;;;1.80;1.20;;;;;;;26.31;46.45;100639.31;4895893;29;20052;-76
2022/07/27 06:57:45;;;;;;;1.83;1.17;;;;;;;26.25;46.86;100639.56;4890597;29;20061;-76
2022/07/27 07:00:15;;;;;;;1.98;1.50;;;;;;;26.20;46.76;100643.31;4887303;29;20056;-76
2022/07/27 07:02:55;;;;;;;3.70;1.30;;;;;;;26.12;46.30;100649.75;4898016;29;20116;-76
2022/07/27 07:05:23;;;;;;;3.25;1.35;;;;;;;26.03;46.03;100654.53;4890538;29;20418;-76
2022/07/27 07:07:52;;;;;;;2.92;1.13;;;;;;;25.94;47.80;100650.44;4889239;29;20518;-76
2022/07/27 07:10:21;;;;;;;4.60;1.50;;;;;;;25.88;48.93;100658.59;4891537;29;20504;-76
2022/07/27 07:12:54;;;;;;;2.90;1.27;;;;;;;25.79;49.74;100659.75;4890458;29;20041;-76
2022/07/27 07:15:24;;;;;;;3.20;1.33;;;;;;;25.70;47.31;100663.59;4887609;29;20059;-75
2022/07/27 07:17:54;;;;;;;1.80;1.23;;;;;;;25.61;47.84;100663.94;4892942;29;20131;-76
2022/07/27 07:20:23;;;;;;;5.43;2.13;;;;;;;25.47;47.63;100658.22;4893478;29;20606;-76
2022/07/27 07:22:52;;;;;;;4.43;1.40;;;;;;;25.46;47.44;100675.03;4889025;29;20053;-76
2022/07/27 07:25:20;;;;;;;2.30;1.30;;;;;;;25.38;47.76;100671.75;4894574;29;20064;-77
2022/07/27 07:27:49;;;;;;;2.42;1.42;;;;;;;25.24;49.36;100672.22;4886416;29;20063;-77
2022/07/27 07:30:17;;;;;;;7.38;1.70;;;;;;;25.07;48.92;100678.03;4894965;29;20109;-77
2022/07/27 07:32:46;;;;;;;2.50;1.58;;;;;;;24.95;51.76;100683.72;4894621;29;20582;-76
2022/07/27 07:35:16;;;;;;;2.40;1.20;;;;;;;24.72;51.30;100685.28;4889096;29;20057;-78
2022/07/27 07:37:45;;;;;;;3.72;1.50;;;;;;;24.55;51.06;100682.28;4892020;29;20052;-76
2022/07/27 07:40:13;;;;;;;3.17;1.10;;;;;;;24.49;49.54;100696.56;4897021;29;20563;-78
2022/07/27 07:42:53;;;;;;;3.45;1.50;;;;;;;24.42;49.25;100690.56;4893405;29;20577;-78
2022/07/27 07:45:23;;;;;;;4.05;1.30;;;;;;;24.40;49.15;100702.09;4887907;29;20514;-78
2022/07/27 07:47:52;;;;;;;4.18;1.30;;;;;;;24.38;51.22;100694.19;4894300;29;20148;-77
2022/07/27 07:50:23;;;;;;;1.80;1.20;;;;;;;24.35;50.02;100696.03;4891745;29;20530;-75
2022/07/27 07:52:53;;;;;;;2.25;1.40;;;;;;;24.33;51.51;100706.69;4887842;29;20499;-78
2022/07/27 07:55:22;;;;;;;3.03;1.20;;;;;;;24.29;51.12;100705.03;4884973;29;20049;-76
2022/07/27 07:57:51;;;;;;;1.70;1.00;;;;;;;24.23;51.11;100706.06;4895732;29;20063;-77
2022/07/27 08:00:20;;;;;;;3.85;1.55;;;;;;;24.15;50.19;100704.56;4898178;29;20060;-77
2022/07/27 08:02:50;;;;;;;2.50;1.20;;;;;;;24.12;50.57;100715.19;4892440;29;20104;-75
2022/07/27 08:05:19;;;;;;;4.45;1.20;;;;;;;24.06;50.34;100707.44;4878994;29;20530;-77
2022/07/27 08:07:50;;;;;;;2.00;1.13;;;;;;;24.00;51.85;100711.09;4894346;29;20053;-77
2022/07/27 08:10:21;;;;;;;2.70;1.30;;;;;;;23.92;51.47;100716.59;4881198;29;20575;-77
2022/07/27 08:12:51;;;;;;;2.30;1.20;;;;;;;23.77;51.94;100723.13;4887121;29;20056;-78
2022/07/27 08:15:20;;;;;;;1.95;1.20;;;;;;;23.63;50.88;100723.47;4891412;29;20128;-76
2022/07/27 08:17:49;;;;;;;1.65;1.10;;;;;;;23.55;51.18;100725.44;4892180;29;20072;-77
2022/07/27 08:20:18;;;;;;;2.30;1.30;;;;;;;23.45;51.52;100716.00;4889963;29;20709;-76
2022/07/27 08:22:48;;;;;;;2.35;1.65;;;;;;;23.53;51.70;100727.25;4891215;29;20104;-77
2022/07/27 08:25:17;;;;;;;3.45;1.30;;;;;;;23.53;52.24;100724.59;4891801;29;20547;-76
2022/07/27 08:27:45;;;;;;;2.65;1.48;;;;;;;23.54;53.14;100728.97;4893191;29;20052;-76
2022/07/27 08:30:14;;;;;;;3.05;1.13;;;;;;;23.50;52.46;100724.69;4892182;29;20104;-76
2022/07/27 08:32:50;;;;;;;2.42;1.10;;;;;;;23.46;52.67;100723.03;4894129;29;20048;-76
2022/07/27 08:35:20;;;;;;;3.17;1.30;;;;;;;23.41;51.67;100725.78;4894920;29;20058;-76
2022/07/27 08:37:50;;;;;;;3.95;1.38;;;;;;;23.37;52.11;100725.88;4894942;29;20057;-75
2022/07/27 08:40:19;;;;;;;1.50;1.00;;;;;;;23.32;52.24;100719.81;4893727;29;20053;-76
2022/07/27 08:42:48;;;;;;;2.00;1.10;;;;;;;23.26;52.89;100712.94;4890253;29;20132;-76
2022/07/27 08:45:19;;;;;;;2.55;1.20;;;;;;;23.17;52.76;100716.66;4892989;29;20526;-77
2022/07/27 08:47:48;;;;;;;2.75;1.10;;;;;;;23.04;53.35;100719.59;4887400;29;20717;-76
2022/07/27 08:50:23;;;;;;;2.53;1.27;;;;;;;22.92;54.32;100721.59;4887758;29;20052;-76
2022/07/27 08:52:56;;;;;;;4.63;1.40;;;;;;;22.78;55.17;100729.81;4883844;29;20045;-76
2022/07/27 08:55:25;;;;;;;3.00;1.25;;;;;;;22.67;55.14;100723.03;4892269;29;20449;-76
2022/07/27 08:57:54;;;;;;;4.63;1.40;;;;;;;22.58;55.16;100726.72;4886579;29;20045;-77
2022/07/27 09:00:23;;;;;;;4.53;1.33;;;;;;;22.54;54.95;100731.19;4894136;29;20108;-76
2022/07/27 09:02:51;;;;;;;3.65;1.48;;;;;;;22.53;55.48;100728.59;4889613;29;20053;-75
2022/07/27 09:05:21;;;;;;;2.83;1.85;;;;;;;22.52;55.82;100740.03;4890431;29;20060;-77
2022/07/27 09:07:50;;;;;;;3.05;1.48;;;;;;;22.52;56.17;100740.03;4891804;29;20112;-77
2022/07/27 09:10:37;;;;;;;2.00;1.10;;;;;;;22.52;56.26;100740.03;4892616;29;20045;-77
2022/07/27 09:13:22;;;;;;;1.75;1.15;;;;;;;22.50;56.44;100741.84;4889532;29;20132;-77
2022/07/27 09:15:52;;;;;;;3.05;1.33;;;;;;;22.45;57.25;100743.66;4891457;29;20519;-76
2022/07/27 09:18:23;;;;;;;4.05;1.52;;;;;;;22.41;56.36;100750.78;4888441;29;20415;-76
2022/07/27 09:21:14;;;;;;;2.53;1.50;;;;;;;22.41;56.41;100752.56;4891220;29;20140;-77
2022/07/27 09:23:44;;;;;;;3.88;1.48;;;;;;;22.42;56.31;100759.56;4894585;29;20101;-78
2022/07/27 09:26:18;;;;;;;4.38;1.67;;;;;;;22.42;56.44;100757.78;4896283;29;20052;-76
2022/07/27 09:28:47;;;;;;;2.20;1.30;;;;;;;22.41;56.09;100761.34;4882342;29;20128;-77
2022/07/27 09:31:16;;;;;;;4.80;1.60;;;;;;;22.36;57.21;100769.34;4880609;29;20060;-76
2022/07/27 09:33:47;;;;;;;2.38;1.55;;;;;;;22.25;59.33;100771.31;4886606;29;20109;-76
2022/07/27 09:36:17;;;;;;;4.90;1.50;;;;;;;22.01;59.70;100767.28;4891488;29;20056;-76
2022/07/27 09:38:57;;;;;;;4.32;1.35;;;;;;;21.93;60.03;100771.84;4892459;29;20139;-76
2022/07/27 09:41:28;;;;;;;2.75;1.42;;;;;;;21.84;59.43;100762.31;4893122;29;20059;-76
2022/07/27 09:43:57;;;;;;;2.50;1.45;;;;;;;21.82;59.95;100772.00;4891340;29;20061;-76
2022/07/27 09:46:32;;;;;;;5.35;1.52;;;;;;;21.78;60.52;100777.34;4894949;29;20056;-77
2022/07/27 09:49:01;;;;;;;1.85;1.30;;;;;;;21.68;60.35;100779.28;4898965;29;20617;-77
2022/07/27 09:51:30;;;;;;;3.97;1.20;;;;;;;21.56;60.21;100785.63;4889844;29;20053;-77
2022/07/27 09:54:06;;;;;;;3.78;1.65;;;;;;;21.48;60.66;100790.97;4893088;29;20063;-77
2022/07/27 09:56:36;;;;;;;2.42;1.40;;;;;;;21.42;61.53;100793.72;4898940;29;20145;-77
2022/07/27 09:59:05;;;;;;;2.28;1.30;;;;;;;21.34;62.04;100795.53;4904754;29;20049;-77
2022/07/27 10:01:38;;;;;;;3.25;1.63;;;;;;;21.27;62.40;100786.88;4893056;29;20056;-77
2022/07/27 10:04:08;;;;;;;4.00;1.50;;;;;;;21.21;62.37;100794.88;4900026;29;20483;-76
2022/07/27 10:06:37;;;;;;;2.72;1.42;;;;;;;21.18;61.57;100799.28;4895446;29;20222;-77
2022/07/27 10:09:05;;;;;;;2.28;1.40;;;;;;;21.17;61.99;100808.09;4894869;29;20059;-76
2022/07/27 10:11:36;;;;;;;3.85;1.58;;;;;;;21.13;61.35;100801.97;4902705;29;20048;-77
2022/07/27 10:14:04;;;;;;;2.90;1.55;;;;;;;21.13;61.27;100801.97;4891849;29;20107;-77
2022/07/27 10:16:35;;;;;;;2.72;1.23;;;;;;;21.08;60.98;100809.94;4899889;29;20055;-76
2022/07/27 10:19:09;;;;;;;4.35;1.20;;;;;;;21.06;61.63;100811.72;4893045;29;20050;-76
2022/07/27 10:21:41;;;;;;;1.80;1.48;;;;;;;21.10;61.77;100812.56;4889724;29;20056;-76
2022/07/27 10:24:12;;;;;;;2.55;1.42;;;;;;;21.14;62.23;100808.97;4893830;29;20055;-76
2022/07/27 10:26:43;;;;;;;1.63;1.30;;;;;;;21.17;62.15;100821.25;4893681;29;20056;-76
2022/07/27 10:29:18;;;;;;;2.73;1.30;;;;;;;21.17;62.62;100818.63;4892302;29;20573;-77
2022/07/27 10:31:59;;;;;;;2.22;1.48;;;;;;;21.17;62.85;100818.63;4891382;29;20780;-76
2022/07/27 10:34:36;;;;;;;2.15;1.05;;;;;;;21.17;62.64;100818.63;4887804;29;20060;-76
2022/07/27 10:37:12;;;;;;;2.35;1.40;;;;;;;21.16;63.55;100822.97;4897987;29;20132;-77
2022/07/27 10:39:42;;;;;;;2.72;1.80;;;;;;;21.13;63.25;100818.63;4897190;29;20491;-76
2022/07/27 10:42:24;;;;;;;2.67;1.55;;;;;;;21.11;62.76;100823.03;4892978;29;20420;-77
2022/07/27 10:45:06;;;;;;;2.22;1.48;;;;;;;21.08;62.62;100820.47;4894345;29;20052;-76
2022/07/27 10:47:38;;;;;;;2.17;1.50;;;;;;;21.05;62.17;100825.78;4894343;29;20084;-76
2022/07/27 10:50:33;;;;;;;2.20;1.40;;;;;;;21.01;61.49;100826.69;4898974;29;20116;-77
2022/07/27 10:53:04;;;;;;;2.80;1.40;;;;;;;20.97;61.96;100827.63;4856139;29;20056;-76
2022/07/27 10:55:49;;;;;;;4.07;1.42;;;;;;;20.89;62.61;100824.19;4898438;29;20048;-76
2022/07/27 10:58:52;;;;;;;3.17;1.80;;;;;;;20.81;62.50;100826.91;4894634;29;20044;-75
2022/07/27 11:01:22;;;;;;;2.90;1.42;;;;;;;20.79;62.35;100830.47;4885046;29;20053;-77
2022/07/27 11:03:54;;;;;;;2.95;1.55;;;;;;;20.75;62.64;100837.50;4895442;29;20056;-77
2022/07/27 11:06:31;;;;;;;2.08;1.35;;;;;;;20.71;63.08;100834.06;4889159;29;20841;-76
2022/07/27 11:09:02;;;;;;;3.08;1.90;;;;;;;20.66;63.36;100833.25;4888913;29;20053;-75
2022/07/27 11:11:33;;;;;;;1.92;1.38;;;;;;;20.57;63.78;100835.97;4897846;29;20048;-76
2022/07/27 11:14:03;;;;;;;2.13;1.30;;;;;;;20.53;63.72;100847.34;4893813;29;20079;-77
2022/07/27 11:16:32;;;;;;;2.78;1.67;;;;;;;20.49;63.77;100841.25;4883691;29;20056;-76
2022/07/27 11:19:04;;;;;;;4.65;1.60;;;;;;;20.47;64.27;100848.28;4894767;28;20052;-77
2022/07/27 11:21:35;;;;;;;1.90;1.50;;;;;;;20.39;64.14;100849.25;4891350;29;20051;-77
2022/07/27 11:24:10;;;;;;;2.03;1.48;;;;;;;20.29;64.68;100836.22;4886391;29;20048;-76
2022/07/27 11:26:41;;;;;;;4.15;1.40;;;;;;;20.34;64.72;100851.94;4896908;29;20079;-76
2022/07/27 11:29:12;;;;;;;2.17;1.52;;;;;;;20.30;64.72;100848.44;4906233;29;20056;-76
2022/07/27 11:31:42;;;;;;;2.67;1.83;;;;;;;20.29;64.66;100853.72;4882962;29;20108;-76
2022/07/27 11:34:12;;;;;;;4.63;1.80;;;;;;;20.27;65.13;100856.38;4887376;29;20048;-77
2022/07/27 11:36:42;;;;;;;1.98;1.33;;;;;;;20.20;64.98;100854.69;4896818;29;20139;-76
2022/07/27 11:39:13;;;;;;;2.30;1.38;;;;;;;20.18;65.17;100856.44;4882113;29;20113;-76
2022/07/27 11:41:42;;;;;;;2.75;1.80;;;;;;;20.17;65.44;100853.81;4891848;29;20692;-75